Time;durP1;ratioP1;P1;durP2;ratioP2;P2;SDS_P1;SDS_P2;PMS_P1;PMS_P2;Temp;Humidity;BMP_temperature;BMP_pressure;BME280_temperature;BME280_humidity;BME280_pressure;Samples;Min_cycle;Max_cycle;Signal;HPM_P1;HPM_P2
2022/07/11 00:01:48;;;;;;;;;;;;;;;;;;6181616;23;19963;-60
2022/07/11 00:04:15;;;;;;;;;;;;;;;;;;6180610;23;19931;-60
2022/07/11 00:06:42;;;;;;;;;;;;;;;;;;6180545;23;20398;-60
2022/07/11 00:09:10;;;;;;;;;;;;;;;;;;6180634;23;20353;-62
2022/07/11 00:11:37;;;;;;;;;;;;;;;;;;6181449;23;20219;-71
2022/07/11 00:14:04;;;;;;;;;;;;;;;;;;6180339;23;19943;-68
2022/07/11 00:16:31;;;;;;;;;;;;;;;;;;6180400;23;19920;-68
2022/07/11 00:18:58;;;;;;;;;;;;;;;;;;6179643;23;19916;-69
2022/07/11 00:21:25;;;;;;;;;;;;;;;;;;6179799;23;20313;-68
2022/07/11 00:23:52;;;;;;;;;;;;;;;;;;6181185;23;19916;-69
2022/07/11 00:26:19;;;;;;;;;;;;;;;;;;6178627;23;20254;-51
2022/07/11 00:28:47;;;;;;;;;;;;;;;;;;6180972;23;20266;-59
2022/07/11 00:31:14;;;;;;;;;;;;;;;;;;6179014;23;19935;-69
2022/07/11 00:33:41;;;;;;;;;;;;;;;;;;6180678;23;20338;-69
2022/07/11 00:36:09;;;;;;;;;;;;;;;;;;6179711;23;20285;-69
2022/07/11 00:38:36;;;;;;;;;;;;;;;;;;6154697;23;19920;-69
2022/07/11 00:41:03;;;;;;;;;;;;;;;;;;6178903;23;19924;-70
2022/07/11 00:43:30;;;;;;;;;;;;;;;;;;6180805;23;19916;-70
2022/07/11 00:45:57;;;;;;;;;;;;;;;;;;6181107;23;19966;-50
2022/07/11 00:48:25;;;;;;;;;;;;;;;;;;6181447;23;19916;-54
2022/07/11 00:50:52;;;;;;;;;;;;;;;;;;6180089;23;19924;-61
2022/07/11 00:53:19;;;;;;;;;;;;;;;;;;6180172;23;19927;-60
2022/07/11 00:55:46;;;;;;;;;;;;;;;;;;6180449;23;20305;-58
2022/07/11 00:58:13;;;;;;;;;;;;;;;;;;6181080;23;19924;-60
2022/07/11 01:00:40;;;;;;;;;;;;;;;;;;6180112;23;19920;-60
2022/07/11 01:03:07;;;;;;;;;;;;;;;;;;6180651;23;19920;-60
2022/07/11 01:05:35;;;;;;;;;;;;;;;;;;6180109;23;19963;-59
2022/07/11 01:08:02;;;;;;;;;;;;;;;;;;6180771;23;19920;-54
2022/07/11 01:10:29;;;;;;;;;;;;;;;;;;6179754;23;20330;-55
2022/07/11 01:12:56;;;;;;;;;;;;;;;;;;6180332;23;20393;-54
2022/07/11 01:15:24;;;;;;;;;;;;;;;;;;6180230;23;19924;-54
2022/07/11 01:17:52;;;;;;;;;;;;;;;;;;6181478;23;19916;-55
2022/07/11 01:20:19;;;;;;;;;;;;;;;;;;6179265;23;20314;-55
2022/07/11 01:22:49;;;;;;;;;;;;;;;;;;6181136;23;20023;-54
2022/07/11 01:25:29;;;;;;;;;;;;;;;;;;6179969;23;19924;-44
2022/07/11 01:27:57;;;;;;;;;;;;;;;;;;6180269;23;20289;-45
2022/07/11 01:30:25;;;;;;;;;;;;;;;;;;6179421;23;19920;-49
2022/07/11 01:32:52;;;;;;;;;;;;;;;;;;6180218;23;19916;-49
2022/07/11 01:35:20;;;;;;;;;;;;;;;;;;6179841;23;20243;-51
2022/07/11 01:37:47;;;;;;;;;;;;;;;;;;6180427;23;19920;-50
2022/07/11 01:40:14;;;;;;;;;;;;;;;;;;6178997;23;20266;-48
2022/07/11 01:42:41;;;;;;;;;;;;;;;;;;6180376;23;19920;-69
2022/07/11 01:45:08;;;;;;;;;;;;;;;;;;6179563;23;19974;-46
2022/07/11 01:47:35;;;;;;;;;;;;;;;;;;6179605;23;19916;-70
2022/07/11 01:50:02;;;;;;;;;;;;;;;;;;6179884;23;19916;-70
2022/07/11 01:52:29;;;;;;;;;;;;;;;;;;6179948;23;19920;-70
2022/07/11 01:54:56;;;;;;;;;;;;;;;;;;6179464;23;19971;-70
2022/07/11 01:57:24;;;;;;;;;;;;;;;;;;6179062;23;20262;-70
2022/07/11 01:59:51;;;;;;;;;;;;;;;;;;6179111;23;19916;-70
2022/07/11 02:02:18;;;;;;;;;;;;;;;;;;6179673;23;20330;-47
2022/07/11 02:04:46;;;;;;;;;;;;;;;;;;6180015;23;19930;-46
2022/07/11 02:07:14;;;;;;;;;;;;;;;;;;6179010;23;19970;-69
2022/07/11 02:09:41;;;;;;;;;;;;;;;;;;6179494;23;19920;-69
2022/07/11 02:12:09;;;;;;;;;;;;;;;;;;6179950;23;20339;-69
2022/07/11 02:14:36;;;;;;;;;;;;;;;;;;6179312;23;19920;-69
2022/07/11 02:17:03;;;;;;;;;;;;;;;;;;6179428;23;19943;-70
2022/07/11 02:19:30;;;;;;;;;;;;;;;;;;6179959;23;19970;-70
2022/07/11 02:22:04;;;;;;;;;;;;;;;;;;6179644;23;19919;-61
2022/07/11 02:24:31;;;;;;;;;;;;;;;;;;6180135;23;19970;-61
2022/07/11 02:26:59;;;;;;;;;;;;;;;;;;6180168;23;19920;-62
2022/07/11 02:29:26;;;;;;;;;;;;;;;;;;6180693;23;19974;-61
2022/07/11 02:31:53;;;;;;;;;;;;;;;;;;6178742;23;20066;-61
2022/07/11 02:34:20;;;;;;;;;;;;;;;;;;6180373;23;19916;-61
2022/07/11 02:36:47;;;;;;;;;;;;;;;;;;6179813;23;20293;-60
2022/07/11 02:39:14;;;;;;;;;;;;;;;;;;6179843;23;19920;-63
2022/07/11 02:41:41;;;;;;;;;;;;;;;;;;6178498;23;19916;-71
2022/07/11 02:44:08;;;;;;;;;;;;;;;;;;6177461;23;19916;-46
2022/07/11 02:46:36;;;;;;;;;;;;;;;;;;6179955;23;19939;-46
2022/07/11 02:49:03;;;;;;;;;;;;;;;;;;6179983;23;19920;-45
2022/07/11 02:51:30;;;;;;;;;;;;;;;;;;6180299;23;19916;-45
2022/07/11 02:53:57;;;;;;;;;;;;;;;;;;6179121;23;19916;-46
2022/07/11 02:56:25;;;;;;;;;;;;;;;;;;6179462;23;19971;-48
2022/07/11 02:58:52;;;;;;;;;;;;;;;;;;6179801;23;19920;-63
2022/07/11 03:01:19;;;;;;;;;;;;;;;;;;6180260;23;20405;-46
2022/07/11 03:03:46;;;;;;;;;;;;;;;;;;6180477;23;19927;-59
2022/07/11 03:06:13;;;;;;;;;;;;;;;;;;6180135;23;19920;-59
2022/07/11 03:08:41;;;;;;;;;;;;;;;;;;6181245;23;19916;-59
2022/07/11 03:11:08;;;;;;;;;;;;;;;;;;6153611;23;20334;-59
2022/07/11 03:13:35;;;;;;;;;;;;;;;;;;6178768;23;20392;-60
2022/07/11 03:16:02;;;;;;;;;;;;;;;;;;6179575;23;19916;-60
2022/07/11 03:18:29;;;;;;;;;;;;;;;;;;6179880;23;20357;-60
2022/07/11 03:20:57;;;;;;;;;;;;;;;;;;6179056;23;20369;-45
2022/07/11 03:23:24;;;;;;;;;;;;;;;;;;6179135;23;20564;-59
2022/07/11 03:25:51;;;;;;;;;;;;;;;;;;6179221;23;20393;-59
2022/07/11 03:28:18;;;;;;;;;;;;;;;;;;6179682;23;19939;-59
2022/07/11 03:30:45;;;;;;;;;;;;;;;;;;6179559;23;20012;-60
2022/07/11 03:33:12;;;;;;;;;;;;;;;;;;6179346;23;19916;-59
2022/07/11 03:35:43;;;;;;;;;;;;;;;;;;6178527;23;19970;-59
2022/07/11 03:38:10;;;;;;;;;;;;;;;;;;6179920;23;19975;-70
2022/07/11 03:40:37;;;;;;;;;;;;;;;;;;6180108;23;19920;-59
2022/07/11 03:43:04;;;;;;;;;;;;;;;;;;6178184;23;19936;-60
2022/07/11 03:45:31;;;;;;;;;;;;;;;;;;6180483;23;19920;-59
2022/07/11 03:47:58;;;;;;;;;;;;;;;;;;6182082;23;19917;-59
2022/07/11 03:50:26;;;;;;;;;;;;;;;;;;6180902;23;20322;-59
2022/07/11 03:52:53;;;;;;;;;;;;;;;;;;6181867;23;19965;-59
2022/07/11 03:55:21;;;;;;;;;;;;;;;;;;6179995;23;19920;-59
2022/07/11 03:57:48;;;;;;;;;;;;;;;;;;6181544;23;19916;-59
2022/07/11 04:00:16;;;;;;;;;;;;;;;;;;6179383;23;20441;-61
2022/07/11 04:02:43;;;;;;;;;;;;;;;;;;6178682;23;19916;-61
2022/07/11 04:05:10;;;;;;;;;;;;;;;;;;6181515;23;19920;-62
2022/07/11 04:07:37;;;;;;;;;;;;;;;;;;6180690;23;19992;-61
2022/07/11 04:10:04;;;;;;;;;;;;;;;;;;6180816;23;19920;-63
2022/07/11 04:12:31;;;;;;;;;;;;;;;;;;6181258;23;19920;-61
2022/07/11 04:14:58;;;;;;;;;;;;;;;;;;6181011;23;20290;-62
2022/07/11 04:17:26;;;;;;;;;;;;;;;;;;6180727;23;19970;-61
2022/07/11 04:19:54;;;;;;;;;;;;;;;;;;6179600;23;20298;-62
2022/07/11 04:22:21;;;;;;;;;;;;;;;;;;6181399;23;19916;-62
2022/07/11 04:24:48;;;;;;;;;;;;;;;;;;6180146;23;20780;-62
2022/07/11 04:27:15;;;;;;;;;;;;;;;;;;6181044;23;20601;-62
2022/07/11 04:29:47;;;;;;;;;;;;;;;;;;6180811;23;20381;-61
2022/07/11 04:32:14;;;;;;;;;;;;;;;;;;6179013;23;19916;-62
2022/07/11 04:34:42;;;;;;;;;;;;;;;;;;6181115;23;19920;-48
2022/07/11 04:37:09;;;;;;;;;;;;;;;;;;6180639;23;19960;-46
2022/07/11 04:39:36;;;;;;;;;;;;;;;;;;6181500;23;19916;-60
2022/07/11 04:42:03;;;;;;;;;;;;;;;;;;6179614;23;19916;-59
2022/07/11 04:44:30;;;;;;;;;;;;;;;;;;6181047;23;19920;-60
2022/07/11 04:46:57;;;;;;;;;;;;;;;;;;6180764;23;19947;-59
2022/07/11 04:49:24;;;;;;;;;;;;;;;;;;6181274;23;19916;-60
2022/07/11 04:51:52;;;;;;;;;;;;;;;;;;6181252;23;19916;-60
2022/07/11 04:54:19;;;;;;;;;;;;;;;;;;6181056;23;19920;-49
2022/07/11 04:56:46;;;;;;;;;;;;;;;;;;6177088;23;20301;-51
2022/07/11 04:59:13;;;;;;;;;;;;;;;;;;6180708;23;19917;-52
2022/07/11 05:01:40;;;;;;;;;;;;;;;;;;6180923;23;19916;-50
2022/07/11 05:04:08;;;;;;;;;;;;;;;;;;6179491;23;19927;-49
2022/07/11 05:06:35;;;;;;;;;;;;;;;;;;6179752;23;20591;-49
2022/07/11 05:09:03;;;;;;;;;;;;;;;;;;6180566;23;19966;-49
2022/07/11 05:11:30;;;;;;;;;;;;;;;;;;6179923;23;19920;-47
2022/07/11 05:13:58;;;;;;;;;;;;;;;;;;6179945;23;19923;-59
2022/07/11 05:16:25;;;;;;;;;;;;;;;;;;6180161;23;19962;-50
2022/07/11 05:18:52;;;;;;;;;;;;;;;;;;6180482;23;20533;-46
2022/07/11 05:21:23;;;;;;;;;;;;;;;;;;6180231;23;19916;-49
2022/07/11 05:23:50;;;;;;;;;;;;;;;;;;6179036;23;19919;-51
2022/07/11 05:26:18;;;;;;;;;;;;;;;;;;6177932;23;20629;-49
2022/07/11 05:28:45;;;;;;;;;;;;;;;;;;6180134;23;20289;-47
2022/07/11 05:31:12;;;;;;;;;;;;;;;;;;6179157;23;19916;-62
2022/07/11 05:33:39;;;;;;;;;;;;;;;;;;6180507;23;20372;-59
2022/07/11 05:36:08;;;;;;;;;;;;;;;;;;6179801;23;19943;-59
2022/07/11 05:38:35;;;;;;;;;;;;;;;;;;6179877;23;19974;-59
2022/07/11 05:41:02;;;;;;;;;;;;;;;;;;6180101;23;19920;-59
2022/07/11 05:43:30;;;;;;;;;;;;;;;;;;6179245;23;20290;-59
2022/07/11 05:45:58;;;;;;;;;;;;;;;;;;6178694;23;20301;-59
2022/07/11 05:48:25;;;;;;;;;;;;;;;;;;6180420;23;19916;-59
2022/07/11 05:50:53;;;;;;;;;;;;;;;;;;6180050;23;19919;-59
2022/07/11 05:53:20;;;;;;;;;;;;;;;;;;6180434;23;19916;-60
2022/07/11 05:55:47;;;;;;;;;;;;;;;;;;6179029;23;19996;-57
2022/07/11 05:58:14;;;;;;;;;;;;;;;;;;6180151;23;20344;-56
2022/07/11 06:00:41;;;;;;;;;;;;;;;;;;6177765;23;19916;-57
2022/07/11 06:03:09;;;;;;;;;;;;;;;;;;6179147;23;19920;-53
2022/07/11 06:05:36;;;;;;;;;;;;;;;;;;6179120;23;19924;-57
2022/07/11 06:10:49;;;;;;;;;;;;;;;;;;6179510;23;19920;-60
2022/07/11 06:13:16;;;;;;;;;;;;;;;;;;6180631;23;19928;-60
2022/07/11 06:15:44;;;;;;;;;;;;;;;;;;6179510;23;19923;-60
2022/07/11 06:18:11;;;;;;;;;;;;;;;;;;6179491;23;19974;-59
2022/07/11 06:20:38;;;;;;;;;;;;;;;;;;6179088;23;19942;-60
2022/07/11 06:23:06;;;;;;;;;;;;;;;;;;6180150;23;19927;-60
2022/07/11 06:25:33;;;;;;;;;;;;;;;;;;6178907;23;19916;-60
2022/07/11 06:28:01;;;;;;;;;;;;;;;;;;6179802;23;20001;-59
2022/07/11 06:30:28;;;;;;;;;;;;;;;;;;6177077;23;20131;-52
2022/07/11 06:32:55;;;;;;;;;;;;;;;;;;6179035;23;19920;-49
2022/07/11 06:35:23;;;;;;;;;;;;;;;;;;6179802;23;20389;-50
2022/07/11 06:37:50;;;;;;;;;;;;;;;;;;6180139;23;20258;-51
2022/07/11 06:40:17;;;;;;;;;;;;;;;;;;6179881;23;19916;-46
2022/07/11 06:42:44;;;;;;;;;;;;;;;;;;6179401;23;20338;-48
2022/07/11 06:45:11;;;;;;;;;;;;;;;;;;6177703;23;20299;-51
2022/07/11 06:47:39;;;;;;;;;;;;;;;;;;6177301;23;19920;-60
2022/07/11 06:50:06;;;;;;;;;;;;;;;;;;6179639;23;20377;-49
2022/07/11 06:52:33;;;;;;;;;;;;;;;;;;6179317;23;20400;-59
2022/07/11 06:55:00;;;;;;;;;;;;;;;;;;6178465;23;19916;-59
2022/07/11 06:57:27;;;;;;;;;;;;;;;;;;6180004;23;19920;-59
2022/07/11 06:59:54;;;;;;;;;;;;;;;;;;6180488;23;19979;-59
2022/07/11 07:02:26;;;;;;;;;;;;;;;;;;6178531;23;19943;-59
2022/07/11 07:04:58;;;;;;;;;;;;;;;;;;6180161;23;19916;-59
2022/07/11 07:07:25;;;;;;;;;;;;;;;;;;6180569;23;19916;-50
2022/07/11 07:09:55;;;;;;;;;;;;;;;;;;6179841;23;19916;-65
2022/07/11 07:12:22;;;;;;;;;;;;;;;;;;6179672;23;19978;-59
2022/07/11 07:14:49;;;;;;;;;;;;;;;;;;6179961;23;20302;-59
2022/07/11 07:17:16;;;;;;;;;;;;;;;;;;6178898;23;19924;-59
2022/07/11 07:19:43;;;;;;;;;;;;;;;;;;6181352;23;20404;-59
2022/07/11 07:22:14;;;;;;;;;;;;;;;;;;6182200;23;19982;-59
2022/07/11 07:24:41;;;;;;;;;;;;;;;;;;6182591;23;19964;-59
2022/07/11 07:27:08;;;;;;;;;;;;;;;;;;6180832;23;20020;-59
2022/07/11 07:29:36;;;;;;;;;;;;;;;;;;6180669;23;19916;-60
2022/07/11 07:32:03;;;;;;;;;;;;;;;;;;6178962;23;20313;-59
2022/07/11 07:34:30;;;;;;;;;;;;;;;;;;6178831;23;19916;-60
2022/07/11 07:36:57;;;;;;;;;;;;;;;;;;6181439;23;19916;-60
2022/07/11 07:39:24;;;;;;;;;;;;;;;;;;6181302;23;19970;-59
2022/07/11 07:41:51;;;;;;;;;;;;;;;;;;6180931;23;19920;-60
2022/07/11 07:44:19;;;;;;;;;;;;;;;;;;6180443;23;19916;-60
2022/07/11 07:46:46;;;;;;;;;;;;;;;;;;6181488;23;19920;-60
2022/07/11 07:49:13;;;;;;;;;;;;;;;;;;6181695;23;19983;-60
2022/07/11 07:51:41;;;;;;;;;;;;;;;;;;6154624;23;19970;-60
2022/07/11 07:54:08;;;;;;;;;;;;;;;;;;6181146;23;19916;-59
2022/07/11 07:56:35;;;;;;;;;;;;;;;;;;6181669;23;19916;-60
2022/07/11 07:59:02;;;;;;;;;;;;;;;;;;6181447;23;19971;-60
2022/07/11 08:01:35;;;;;;;;;;;;;;;;;;6180890;23;19979;-60
2022/07/11 08:04:02;;;;;;;;;;;;;;;;;;6180227;23;19923;-52
2022/07/11 08:06:29;;;;;;;;;;;;;;;;;;6179815;23;19935;-49
2022/07/11 08:08:56;;;;;;;;;;;;;;;;;;6180762;23;20437;-59
2022/07/11 08:11:24;;;;;;;;;;;;;;;;;;6180974;23;19967;-59
2022/07/11 08:13:58;;;;;;;;;;;;;;;;;;6178746;23;19978;-59
2022/07/11 08:16:28;;;;;;;;;;;;;;;;;;6180171;23;19994;-60
2022/07/11 08:18:57;;;;;;;;;;;;;;;;;;6180289;23;19956;-59
2022/07/11 08:21:25;;;;;;;;;;;;;;;;;;6176277;23;19924;-59
2022/07/11 08:23:52;;;;;;;;;;;;;;;;;;6181076;23;20007;-49
2022/07/11 08:26:19;;;;;;;;;;;;;;;;;;6181061;23;19916;-48
2022/07/11 12:35:10;;;;;;;2.92;0.75;;;;;;;;;;6203243;22;1553609;-63
2022/07/11 12:37:38;;;;;;;2.13;0.98;;;;;;;;;;6111902;23;20097;-63
2022/07/11 12:40:06;;;;;;;4.47;1.02;;;;;;;;;;6119401;23;21305;-63
2022/07/11 12:42:46;;;;;;;3.03;1.02;;;;;;;;;;6138245;23;20021;-63
2022/07/11 12:45:15;;;;;;;2.15;0.63;;;;;;;;;;6149634;23;20022;-63
2022/07/11 12:47:44;;;;;;;0.68;0.68;;;;;;;;;;6148493;23;20097;-63
2022/07/11 12:50:16;;;;;;;0.90;0.63;;;;;;;;;;6149957;23;20023;-61
2022/07/11 12:52:46;;;;;;;1.40;0.80;;;;;;;;;;6148236;23;20026;-63
2022/07/11 12:55:23;;;;;;;4.43;0.70;;;;;;;;;;6149447;23;20080;-63
2022/07/11 12:58:06;;;;;;;1.02;0.70;;;;;;;;;;6150086;23;20025;-63
2022/07/11 13:00:36;;;;;;;1.33;0.70;;;;;;;;;;6149371;23;20052;-64
2022/07/11 13:03:04;;;;;;;1.27;0.55;;;;;;;;;;6149001;23;20088;-64
2022/07/11 13:05:52;;;;;;;2.97;0.70;;;;;;;;;;6148471;23;20029;-63
2022/07/11 13:08:45;;;;;;;2.28;0.60;;;;;;;;;;6149532;23;20021;-51
2022/07/11 13:11:25;;;;;;;0.85;0.60;;;;;;;;;;6119977;23;20022;-60
2022/07/11 13:13:52;;;;;;;1.42;0.57;;;;;;;;;;6118889;23;20077;-59
2022/07/11 13:16:19;;;;;;;0.68;0.65;;;;;;;;;;6121196;23;20026;-59
2022/07/11 13:18:48;;;;;;;1.20;0.57;;;;;;;;;;6120920;23;20109;-59
2022/07/11 13:21:16;;;;;;;1.15;0.57;;;;;;;;;;6120986;23;20060;-59
2022/07/11 13:23:43;;;;;;;;;;;;;;;;;;6121553;23;20029;-59
2022/07/11 13:26:11;;;;;;;1.50;0.60;;;;;;;;;;6121497;23;19972;-60
2022/07/11 13:28:39;;;;;;;0.88;0.85;;;;;;;;;;6121939;23;20472;-59
2022/07/11 13:31:06;;;;;;;1.35;0.65;;;;;;;;;;6122167;23;20077;-52
2022/07/11 13:33:41;;;;;;;2.22;0.65;;;;;;;;;;6119636;23;20472;-47
2022/07/11 13:36:09;;;;;;;1.65;0.60;;;;;;;;;;6141929;23;20084;-52
2022/07/11 13:38:36;;;;;;;3.67;0.65;;;;;;;;;;6149486;23;20030;-50
2022/07/11 13:41:05;;;;;;;;;;;;;;;;;;6149804;23;20084;-53
2022/07/11 13:43:35;;;;;;;2.65;0.90;;;;;;;;;;6148210;23;19963;-52
2022/07/11 13:46:02;;;;;;;2.20;0.80;;;;;;;;;;6151443;23;20021;-49
2022/07/11 13:48:29;;;;;;;0.95;0.63;;;;;;;;;;6149842;23;20076;-63
2022/07/11 13:50:57;;;;;;;2.17;0.70;;;;;;;;;;6151106;23;20029;-64
2022/07/11 13:53:24;;;;;;;1.42;0.70;;;;;;;;;;6150115;23;20389;-64
2022/07/11 13:55:51;;;;;;;6.60;0.90;;;;;;;;;;6149507;23;20079;-63
2022/07/11 13:58:29;;;;;;;;;;;;;;;;;;6147402;23;20029;-65
2022/07/11 14:00:58;;;;;;;2.72;1.05;;;;;;;;;;6150898;23;20088;-64
2022/07/11 14:03:26;;;;;;;3.40;0.60;;;;;;;;;;6149278;23;20022;-64
2022/07/11 14:05:53;;;;;;;1.00;0.60;;;;;;;;;;6149529;23;20029;-64
2022/07/11 14:08:20;;;;;;;2.63;0.70;;;;;;;;;;6150970;23;20028;-58
2022/07/11 14:10:48;;;;;;;0.85;0.43;;;;;;;;;;6124750;23;20029;-50
2022/07/11 14:13:16;;;;;;;3.72;0.88;;;;;;;;;;6149822;23;20021;-50
2022/07/11 14:15:45;;;;;;;0.80;0.63;;;;;;;;;;6150540;23;20411;-52
2022/07/11 14:18:12;;;;;;;1.00;0.50;;;;;;;;;;6151303;23;20017;-49
2022/07/11 14:20:40;;;;;;;1.83;0.63;;;;;;;;;;6151045;23;20025;-52
2022/07/11 14:23:07;;;;;;;2.15;0.40;;;;;;;;;;6151222;23;20322;-50
2022/07/11 14:25:34;;;;;;;;;;;;;;;;;;6151512;23;20025;-58
2022/07/11 14:28:01;;;;;;;0.55;0.55;;;;;;;;;;6150852;23;20332;-53
2022/07/11 14:30:28;;;;;;;;;;;;;;;;;;6151451;23;20709;-60
2022/07/11 14:32:56;;;;;;;1.10;0.45;;;;;;;;;;6151181;23;19920;-61
2022/07/11 14:35:23;;;;;;;;;;;;;;;;;;6150649;23;20029;-60
2022/07/11 14:37:50;;;;;;;0.60;0.50;;;;;;;;;;6150479;23;19932;-60
2022/07/11 14:40:18;;;;;;;3.72;0.50;;;;;;;;;;6150299;23;20063;-61
2022/07/11 14:42:49;;;;;;;2.40;0.75;;;;;;;;;;6150407;23;20068;-60
2022/07/11 14:45:16;;;;;;;;;;;;;;;;;;6151692;23;20021;-53
2022/07/11 14:47:44;;;;;;;0.32;0.28;;;;;;;;;;6149674;23;19975;-59
2022/07/11 14:50:11;;;;;;;1.65;0.40;;;;;;;;;;6149748;23;20467;-59
2022/07/11 14:52:39;;;;;;;1.17;0.55;;;;;;;;;;6150556;23;20530;-59
2022/07/11 14:55:06;;;;;;;1.23;0.60;;;;;;;;;;6150566;23;20029;-59
2022/07/11 14:57:34;;;;;;;1.70;0.52;;;;;;;;;;6150335;23;20021;-60
2022/07/11 15:00:01;;;;;;;;;;;;;;;;;;6151624;23;20060;-59
2022/07/11 15:05:14;;;;;;;6.38;0.60;;;;;;;;;;6150462;23;20022;-58
2022/07/11 15:13:21;;;;;;;1.13;0.40;;;;;;;;;;6149136;23;20026;-63
2022/07/11 15:15:48;;;;;;;1.70;0.50;;;;;;;;;;6150278;23;20033;-63
2022/07/11 15:18:16;;;;;;;1.88;0.77;;;;;;;;;;6148672;23;20025;-63
2022/07/11 15:20:43;;;;;;;0.50;0.30;;;;;;;;;;6149675;23;20026;-63
2022/07/11 15:23:10;;;;;;;;;;;;;;;;;;6149696;23;20080;-49
2022/07/11 15:25:38;;;;;;;2.83;0.50;;;;;;;;;;6150798;23;19939;-60
2022/07/11 15:28:05;;;;;;;3.28;0.60;;;;;;;;;;6149799;23;20025;-59
2022/07/11 15:30:32;;;;;;;;;;;;;;;;;;6150740;23;20029;-59
2022/07/11 15:32:59;;;;;;;0.75;0.30;;;;;;;;;;6150518;23;19979;-60
2022/07/11 15:35:27;;;;;;;0.60;0.50;;;;;;;;;;6149976;23;20080;-59
2022/07/11 15:37:54;;;;;;;0.50;0.30;;;;;;;;;;6149285;23;20523;-60
2022/07/11 15:40:21;;;;;;;;;;;;;;;;;;6150148;23;20021;-59
2022/07/11 15:42:48;;;;;;;2.00;0.50;;;;;;;;;;6150101;23;19920;-62
2022/07/11 15:45:15;;;;;;;0.82;0.50;;;;;;;;;;6147947;23;20486;-52
2022/07/11 15:47:43;;;;;;;2.22;0.73;;;;;;;;;;6122521;23;20072;-48
2022/07/11 15:50:10;;;;;;;1.75;0.65;;;;;;;;;;6149409;23;20413;-53
2022/07/11 15:52:37;;;;;;;1.10;0.70;;;;;;;;;;6150365;23;20080;-52
2022/07/11 15:55:11;;;;;;;1.45;0.70;;;;;;;;;;6150795;23;20051;-52
2022/07/11 15:57:38;;;;;;;;;;;;;;;;;;6150817;23;20026;-49
2022/07/11 16:00:06;;;;;;;0.90;0.70;;;;;;;;;;6150609;23;19917;-54
2022/07/11 16:02:34;;;;;;;1.23;0.80;;;;;;;;;;6150549;23;20029;-59
2022/07/11 16:05:01;;;;;;;4.88;0.98;;;;;;;;;;6149317;23;20410;-54
2022/07/11 16:07:29;;;;;;;2.72;0.95;;;;;;;;;;6150082;23;20025;-50
2022/07/11 16:09:56;;;;;;;2.85;0.75;;;;;;;;;;6149907;23;20026;-54
2022/07/11 16:12:24;;;;;;;2.83;0.70;;;;;;;;;;6149455;23;20096;-51
2022/07/11 16:14:51;;;;;;;1.27;0.52;;;;;;;;;;6149538;23;20026;-49
2022/07/11 16:17:18;;;;;;;;;;;;;;;;;;6122975;23;20025;-50
2022/07/11 16:19:46;;;;;;;1.65;0.50;;;;;;;;;;6147258;23;19920;-50
2022/07/11 16:22:13;;;;;;;4.53;1.05;;;;;;;;;;6149842;23;20025;-59
2022/07/11 16:24:40;;;;;;;;;;;;;;;;;;6150050;23;20049;-59
2022/07/11 16:27:08;;;;;;;0.93;0.50;;;;;;;;;;6149959;23;19924;-59
2022/07/11 16:29:35;;;;;;;1.95;0.60;;;;;;;;;;6149509;23;20391;-59
2022/07/11 16:32:02;;;;;;;;;;;;;;;;;;6149964;23;20593;-59
2022/07/11 16:34:29;;;;;;;1.90;0.80;;;;;;;;;;6148441;23;20335;-59
2022/07/11 16:36:57;;;;;;;2.58;0.90;;;;;;;;;;6149796;23;20021;-60
2022/07/11 16:44:57;;;;;;;3.05;1.00;;;;;;;;;;6147020;23;20025;-49
2022/07/11 16:47:24;;;;;;;2.05;0.90;;;;;;;;;;6148512;23;20026;-47
2022/07/11 16:49:51;;;;;;;2.03;0.80;;;;;;;;;;6148358;23;20068;-47
2022/07/11 16:52:19;;;;;;;2.92;0.82;;;;;;;;;;6151437;23;20088;-48
2022/07/11 16:54:46;;;;;;;1.48;0.68;;;;;;;;;;6125113;23;20029;-49
2022/07/11 16:57:16;;;;;;;;;;;;;;;;;;6150928;23;20025;-59
2022/07/11 16:59:45;;;;;;;1.67;0.80;;;;;;;;;;6151634;23;19917;-59
2022/07/11 17:02:13;;;;;;;1.75;0.73;;;;;;;;;;6149737;23;20032;-63
2022/07/11 17:04:40;;;;;;;4.43;1.00;;;;;;;;;;6151461;23;20018;-63
2022/07/11 17:07:07;;;;;;;;;;;;;;;;;;6152316;23;20033;-65
2022/07/11 17:09:34;;;;;;;2.25;0.85;;;;;;;;;;6151730;23;19924;-64
2022/07/11 17:12:02;;;;;;;;;;;;;;;;;;6149508;23;20399;-65
2022/07/11 17:14:29;;;;;;;2.13;0.90;;;;;;;;;;6150313;23;19924;-62
2022/07/11 17:16:56;;;;;;;;;;;;;;;;;;6152508;23;20022;-48
2022/07/11 17:19:24;;;;;;;3.13;1.00;;;;;;;;;;6148835;23;19920;-62
2022/07/11 17:21:51;;;;;;;;;;;;;;;;;;6151626;23;20025;-57
2022/07/11 17:24:18;;;;;;;2.35;0.98;;;;;;;;;;6149825;23;20302;-57
2022/07/11 17:26:46;;;;;;;;;;;;;;;;;;6150404;23;20045;-58
2022/07/11 17:29:13;;;;;;;2.60;0.88;;;;;;;;;;6148685;23;19920;-57
2022/07/11 17:31:45;;;;;;;;;;;;;;;;;;6151792;23;20032;-58
2022/07/11 17:34:13;;;;;;;1.05;0.63;;;;;;;;;;6151088;23;19916;-57
2022/07/11 17:36:41;;;;;;;1.40;0.75;;;;;;;;;;6151069;23;20021;-61
2022/07/11 17:39:08;;;;;;;3.95;0.60;;;;;;;;;;6151708;23;20029;-59
2022/07/11 17:41:36;;;;;;;2.30;1.00;;;;;;;;;;6151283;23;20475;-60
2022/07/11 17:44:03;;;;;;;4.20;1.15;;;;;;;;;;6150998;23;20096;-60
2022/07/11 17:46:31;;;;;;;1.30;0.60;;;;;;;;;;6151814;23;20025;-60
2022/07/11 17:48:58;;;;;;;;;;;;;;;;;;6151818;23;20028;-60
2022/07/11 17:51:26;;;;;;;4.25;0.85;;;;;;;;;;6151638;23;19963;-60
2022/07/11 17:53:54;;;;;;;2.13;0.80;;;;;;;;;;6151807;23;20017;-60
2022/07/11 17:56:22;;;;;;;1.38;0.88;;;;;;;;;;6151700;23;20084;-49
2022/07/11 17:58:49;;;;;;;;;;;;;;;;;;6151828;23;20025;-61
2022/07/11 18:01:16;;;;;;;3.28;0.90;;;;;;;;;;6151531;23;19964;-61
2022/07/11 18:03:44;;;;;;;;;;;;;;;;;;6152253;23;20049;-61
2022/07/11 18:06:11;;;;;;;2.42;1.13;;;;;;;;;;6151040;23;19963;-61
2022/07/11 18:08:38;;;;;;;2.72;1.20;;;;;;;;;;6151172;23;20033;-61
2022/07/11 18:11:14;;;;;;;5.10;1.30;;;;;;;;;;6151281;23;20029;-60
2022/07/11 18:13:41;;;;;;;2.25;1.10;;;;;;;;;;6150113;23;20029;-59
2022/07/11 18:16:08;;;;;;;3.90;1.42;;;;;;;;;;6150755;23;20089;-58
2022/07/11 18:18:35;;;;;;;1.50;1.17;;;;;;;;;;6151292;23;20025;-61
2022/07/11 18:21:04;;;;;;;2.42;1.20;;;;;;;;;;6151988;23;20035;-61
2022/07/11 18:23:31;;;;;;;5.20;1.27;;;;;;;;;;6150716;23;20022;-61
2022/07/11 18:25:58;;;;;;;2.20;1.00;;;;;;;;;;6151897;23;20025;-61
2022/07/11 18:28:25;;;;;;;0.95;0.40;;;;;;;;;;6150502;23;20028;-61
2022/07/11 18:30:52;;;;;;;;;;;;;;;;;;6151665;23;20025;-61
2022/07/11 18:33:20;;;;;;;3.83;1.02;;;;;;;;;;6150859;23;19920;-61
2022/07/11 18:35:47;;;;;;;2.13;1.05;;;;;;;;;;6150310;23;20030;-59
2022/07/11 18:38:14;;;;;;;0.50;0.50;;;;;;;;;;6147760;23;20480;-52
2022/07/11 18:43:28;;;;;;;1.20;0.70;;;;;;;;;;6146737;23;20029;-49
2022/07/11 18:45:55;;;;;;;;;;;;;;;;;;6146637;23;20026;-46
2022/07/11 18:48:22;;;;;;;1.00;0.60;;;;;;;;;;6146507;23;19943;-48
2022/07/11 18:50:50;;;;;;;0.40;0.40;;;;;;;;;;6146493;23;20026;-48
2022/07/11 18:53:18;;;;;;;2.08;0.63;;;;;;;;;;6145762;23;20080;-62
2022/07/11 18:55:45;;;;;;;4.50;0.98;;;;;;;;;;6147784;23;20026;-61
2022/07/11 18:58:12;;;;;;;4.15;0.65;;;;;;;;;;6147300;23;20025;-61
2022/07/11 19:00:40;;;;;;;1.23;0.40;;;;;;;;;;6145917;23;20633;-61
2022/07/11 19:03:14;;;;;;;1.48;0.60;;;;;;;;;;6146465;23;20084;-61
2022/07/11 19:05:41;;;;;;;0.82;0.57;;;;;;;;;;6147860;23;20048;-62
2022/07/11 19:08:08;;;;;;;1.60;0.65;;;;;;;;;;6147664;23;20391;-61
2022/07/11 19:10:35;;;;;;;2.92;0.65;;;;;;;;;;6147611;23;20061;-58
2022/07/11 19:13:02;;;;;;;0.63;0.40;;;;;;;;;;6145442;23;20364;-52
2022/07/11 19:15:30;;;;;;;5.25;0.70;;;;;;;;;;6145999;23;20526;-59
2022/07/11 19:17:57;;;;;;;3.80;0.88;;;;;;;;;;6146910;23;20068;-58
2022/07/11 19:20:24;;;;;;;2.90;0.57;;;;;;;;;;6147127;23;20065;-58
2022/07/11 19:22:52;;;;;;;2.65;0.68;;;;;;;;;;6147750;23;20577;-58
2022/07/11 19:25:19;;;;;;;2.38;0.90;;;;;;;;;;6146837;23;20535;-58
2022/07/11 19:27:46;;;;;;;0.95;0.60;;;;;;;;;;6147094;23;20029;-58
2022/07/11 19:30:14;;;;;;;2.45;0.38;;;;;;;;;;6145193;23;20542;-61
2022/07/11 19:32:41;;;;;;;2.78;0.73;;;;;;;;;;6147020;23;20475;-60
2022/07/11 19:35:08;;;;;;;1.65;0.68;;;;;;;;;;6146154;23;20021;-46
2022/07/11 19:37:36;;;;;;;1.95;0.68;;;;;;;;;;6147460;23;20026;-46
2022/07/11 19:40:04;;;;;;;2.78;0.77;;;;;;;;;;6146406;23;20026;-48
2022/07/11 19:42:31;;;;;;;1.10;0.63;;;;;;;;;;6122101;23;20397;-47
2022/07/11 19:45:08;;;;;;;1.40;0.55;;;;;;;;;;6145560;23;20028;-50
2022/07/11 19:47:36;;;;;;;3.17;0.70;;;;;;;;;;6147220;23;20026;-51
2022/07/11 19:50:03;;;;;;;;;;;;;;;;;;6145980;23;20403;-61
2022/07/11 19:52:30;;;;;;;1.42;0.63;;;;;;;;;;6146694;23;20250;-45
2022/07/11 19:57:44;;;;;;;2.75;0.45;;;;;;;;;;6146422;23;20049;-50
2022/07/11 20:00:11;;;;;;;1.95;1.00;;;;;;;;;;6144836;23;20030;-46
2022/07/11 20:02:38;;;;;;;1.52;0.80;;;;;;;;;;6146592;23;20028;-48
2022/07/11 20:05:07;;;;;;;1.42;0.77;;;;;;;;;;6145941;23;20045;-47
2022/07/11 20:07:34;;;;;;;2.17;0.70;;;;;;;;;;6146683;23;20542;-60
2022/07/11 20:10:01;;;;;;;1.13;0.60;;;;;;;;;;6146285;23;20025;-48
2022/07/11 20:12:28;;;;;;;1.50;0.50;;;;;;;;;;6144700;23;20025;-48
2022/07/11 20:14:56;;;;;;;2.38;0.60;;;;;;;;;;6145523;23;20364;-46
2022/07/11 20:17:23;;;;;;;2.03;0.60;;;;;;;;;;6147141;23;20080;-47
2022/07/11 20:19:50;;;;;;;2.20;0.80;;;;;;;;;;6118318;23;20109;-52
2022/07/11 20:22:18;;;;;;;3.35;1.10;;;;;;;;;;6120056;23;20029;-45
2022/07/11 20:24:45;;;;;;;1.60;0.73;;;;;;;;;;6120671;23;20026;-44